Flight Track Log - Related Links

Times and Time Zones

All times are in EDT time to prevent confusion due to time zone crossing. See the SKW5631 flight status page for this flight to view local times or setup timezone preferences in your user account.

Time Position Orientation Groundspeed Altitude Reporting Facility
EDT Latitude Longitude Course Direction KTS MPH feet Rate Location/Type
Thu 10:29:34 AM 37.6500 -122.3667 338° Northwest 151 174 1,500  Level Northern TRACON
Thu 10:30:28 AM 37.6833 -122.3833 338° Northwest 186 214 3,100 1,611 Climbing Northern TRACON
Thu 10:31:22 AM 37.6500 -122.4167 218° Southwest 193 222 4,400 1,158 Climbing Northern TRACON
Thu 10:32:22 AM 37.6122 -122.4347 201° Southwest 210 242 5,300 984 Climbing Oakland Center
Thu 10:33:24 AM 37.5347 -122.4578 193° South 233 268 6,400 1,512 Climbing Oakland Center
Thu 10:34:25 AM 37.4708 -122.4547 178° South 232 267 8,400 1,967 Climbing Oakland Center
Thu 10:35:26 AM 37.4117 -122.4531 179° South 215 247 10,400 1,869 Climbing Oakland Center
Thu 10:36:27 AM 37.3550 -122.4508 178° South 207 238 12,200 1,623 Climbing Oakland Center
Thu 10:37:28 AM 37.2964 -122.4511 180° South 212 244 13,700 1,220 Climbing Oakland Center
Thu 10:38:30 AM 37.2317 -122.4511 180° South 229 264 14,700 1,024 Climbing Oakland Center
Thu 10:39:31 AM 37.1642 -122.4475 178° South 243 280 15,800 1,082 Climbing Oakland Center
Thu 10:40:32 AM 37.0958 -122.4431 177° South 247 284 16,900 1,033 Climbing Oakland Center
Thu 10:41:33 AM 37.0394 -122.3969 147° Southeast 246 283 17,900 984 Climbing Oakland Center
Thu 10:42:34 AM 36.9836 -122.3478 145° Southeast 245 282 18,900 976 Climbing Oakland Center
Thu 10:43:36 AM 36.9150 -122.2892 146° Southeast 250 288 19,900 927 Climbing Oakland Center
Thu 10:44:37 AM 36.8569 -122.2369 144° Southeast 256 295 20,800 836 Climbing Oakland Center
Thu 10:45:38 AM 36.7967 -122.1883 147° Southeast 259 298 21,600 738 Climbing Oakland Center
Thu 10:46:39 AM 36.7331 -122.1453 152° Southeast 260 299 22,300 732 Climbing Oakland Center
Thu 10:47:41 AM 36.6669 -122.1022 152° Southeast 267 307 23,100 732 Climbing Oakland Center
Thu 10:48:42 AM 36.6053 -122.0542 148° Southeast 263 303 23,800 639 Climbing Oakland Center
Thu 10:49:43 AM 36.5403 -122.0075 150° Southeast 268 308 24,400 541 Climbing Oakland Center
Thu 10:50:44 AM 36.4756 -121.9619 150° Southeast 269 310 24,900 295 Climbing Oakland Center
Thu 10:51:45 AM 36.4078 -121.9133 150° Southeast 280 322 25,000 49 Climbing Oakland Center
Thu 10:52:47 AM 36.3392 -121.8608 148° Southeast 288 331 25,000  Level Oakland Center
Thu 10:53:48 AM 36.2744 -121.7917 139° Southeast 289 333 25,000  Level Oakland Center
Thu 10:54:49 AM 36.2122 -121.7289 141° Southeast 289 333 25,000  Level Oakland Center
Thu 10:55:50 AM 36.1497 -121.6656 141° Southeast 290 334 25,000  Level Oakland Center
Thu 10:56:51 AM 36.0750 -121.5903 141° Southeast 290 334 25,000  Level Oakland Center
Thu 10:57:52 AM 36.0119 -121.5278 141° Southeast 291 335 25,000  Level Oakland Center
Thu 10:58:53 AM 35.9494 -121.4647 141° Southeast 290 334 25,000  Level Oakland Center
Thu 10:59:55 AM 35.8861 -121.4019 141° Southeast 292 336 25,000  Level Oakland Center
Thu 11:00:56 AM 35.8222 -121.3392 141° Southeast 295 339 25,000  Level Oakland Center
Thu 11:01:57 AM 35.7586 -121.2756 141° Southeast 296 341 25,000  Level Oakland Center
Thu 11:02:58 AM 35.6933 -121.2131 142° Southeast 297 342 25,000  Level Oakland Center
Thu 11:03:59 AM 35.6292 -121.1492 141° Southeast 298 343 25,000  Level Oakland Center
Thu 11:05:00 AM 35.5647 -121.0861 141° Southeast 298 343 25,000  Level Oakland Center
Thu 11:06:01 AM 35.4997 -121.0233 142° Southeast 298 343 25,000  Level Oakland Center
Thu 11:07:02 AM 35.4225 -120.9472 141° Southeast 299 344 25,000 -443 Level Oakland Center
Thu 11:08:03 AM 35.3567 -120.8833 142° Southeast 303 349 24,100 -682 Descending Oakland Center
Thu 11:08:30 AM 35.3369 -120.8647 142° Southeast 305 351 24,000 -614 Descending Los Center
Thu 11:09:31 AM 35.2697 -120.7992 141° Southeast 308 354 23,200 -1,220 Descending Los Center
Thu 11:10:33 AM 35.1925 -120.7253 142° Southeast 291 335 21,500 -1,403 Descending Los Center
Thu 11:11:35 AM 35.1347 -120.6675 141° Southeast 272 313 20,300 -1,210 Descending Los Center
Thu 11:12:37 AM 35.0753 -120.6108 142° Southeast 270 311 19,000 -1,258 Descending Los Center
Thu 11:13:39 AM 35.0169 -120.5536 141° Southeast 269 310 17,700 -1,258 Descending Los Center
Thu 11:14:41 AM 34.9589 -120.4986 142° Southeast 265 305 16,400 -1,357 Descending Los Center
Thu 11:15:03 AM 34.9336 -120.4750 143° Southeast 260 299 15,800 -1,258 Descending Los Center
Thu 11:15:43 AM 34.9025 -120.4450 142° Southeast 258 297 15,100 -1,418 Descending Los Center
Thu 11:15:58 AM 34.8822 -120.4258 142° Southeast 259 298 14,500 -1,355 Descending Los Center
Thu 11:16:45 AM 34.8497 -120.3956 143° Southeast 241 277 13,700 -1,182 Descending Los Center
Thu 11:17:04 AM 34.8256 -120.3733 143° Southeast 235 270 13,200 -1,161 Descending Los Center
Thu 11:17:47 AM 34.7978 -120.3514 147° Southeast 230 265 12,500 -1,180 Descending Los Center
Thu 11:18:05 AM 34.7675 -120.3342 155° Southeast 225 259 12,000 -1,452 Descending Los Center
Thu 11:18:49 AM 34.7319 -120.3078 149° Southeast 224 258 11,000 -1,472 Descending Los Center
Thu 11:19:51 AM 34.6761 -120.2706 151° Southeast 225 259 9,400 -1,742 Descending Los Center
Thu 11:20:53 AM 34.6172 -120.2322 152° Southeast 235 270 7,400 -2,122 Descending Los Center
Thu 11:21:13 AM 34.5936 -120.2094 142° Southeast 240 276 6,500 -1,935 Descending Los Center
Thu 11:21:55 AM 34.5689 -120.1733 130° Southeast 237 273 5,400 -1,442 Descending Los Center
Thu 11:22:57 AM 34.5325 -120.1197 129° Southeast 225 259 4,000 -677 Descending Los Center
Thu 11:23:59 AM 34.4978 -120.0600 125° Southeast 209 241 4,000  Level Los Center
Thu 11:25:01 AM 34.4656 -120.0111 129° Southeast 192 221 4,000  Level Los Center
Thu 11:26:03 AM 34.4342 -119.9669 131° Southeast 150 173 4,000  Level Los Center
Thu 11:27:06 AM 34.4089 -119.9286 129° Southeast 146 168 4,000  Level Los Center
Thu 11:28:08 AM 34.3864 -119.8889 124° Southeast 145 167 4,000 -391 Level Los Center
Thu 11:29:24 AM 34.3750 -119.8258 102° East 144 166 3,100 -968 Descending Los Center
Thu 11:30:12 AM 34.3717 -119.7967 98° East 139 160 2,000 -1,255 Descending Los Center
Thu 11:31:14 AM 34.4164 -119.7933 North 136 157 800 -942 Descending Los Center
Thu 11:32:13 AM 34.4278 -119.8297 291° West 131 151 100 -712 Descending Los Center
Thu 11:34:00 AM 34.4167 -119.8333 309° West  Level FlightAware

Login

Don't have an account? Register now (free) for customized features, flight alerts, and more!